ZDV Airport - KDEN

Denver International

Live Information

KDEN 232253Z 34006KT 10SM FEW080 FEW160 BKN220 31/09 A3023 RMK AO2 SLP151 TCU DSNT NE-SE T03110089

The airport is in VFR flying conditions

Charts

Live Pilots

Departures
Callsign Pilot Name Aircraft Type Arrival Filed Cruise Altitude Ground Speed Flight State
ACI032 HERNALD MROC A320/A KPDX 34000 34196 413 Outside ZDV
DAL3313 Douglas Schmidt KPHX H/B763/L KDTW 37000 661 0 Outside ZDV
JBU982 Jason Wookie KPVD A320/L KMEM 35000 32144 477 Departing
SWA157 Kyle Kaestner KSUS B738/L KSEA 36000 20040 391 Outside ZDV
SWA215 Brennan Schuld B737/L KABQ 32000 5322 0 Outside ZDV
UA403 AMJED OERK A320 KORD 33000 32954 481 Departing
UAL7532 Evan Olivas KDEN B738 KABQ 35000 34190 320 Departing

Arrivals
Callsign Pilot Name Aircraft Type Departure Filed Cruise Altitude Ground Speed Flight State
FFT231 Austin Kukral A320/L KBOS 34000 34052 337 Outside ZDV
SWA5866 keanubies EHBK B738/L KMCI 36000 1034 0 Outside ZDV
UAL825 Zachary Pineiro KRDU B738/L KIAH 36000 36275 434 Outside ZDV
UKV3173 Mark Stockan EGPD MD88/X KMDW 36000 36321 412 Outside ZDV